Time;durP1;ratioP1;P1;durP2;ratioP2;P2;SDS_P1;SDS_P2;PMS_P1;PMS_P2;Temp;Humidity;BMP_temperature;BMP_pressure;BME280_temperature;BME280_humidity;BME280_pressure;Samples;Min_cycle;Max_cycle;Signal;HPM_P1;HPM_P2
2021/01/30 00:03:53;;;;;;;104.00;62.90;;;7.40;99.90;;;;;;4804055;29;20099;-83
2021/01/30 00:07:20;;;;;;;118.70;66.38;;;7.30;99.90;;;;;;4803194;29;20073;-83
2021/01/30 00:46:20;;;;;;;106.38;62.90;;;7.20;99.90;;;;;;4811695;29;20114;-82
2021/01/30 01:11:14;;;;;;;;;;;;;;;;;;;;;
2021/01/30 01:19:10;;;;;;;;;;;;;;;;;;;;;
2021/01/30 01:40:29;;;;;;;104.00;61.65;;;7.40;99.90;;;;;;4765823;30;20039;-82
2021/01/30 01:55:09;;;;;;;94.10;53.30;;;7.50;99.90;;;;;;4643866;30;20077;-83
2021/01/30 02:12:53;;;;;;;111.00;58.38;;;7.50;99.90;;;;;;4790719;29;20039;-82
2021/01/30 02:16:18;;;;;;;;;;;;;;;;;;;;;
2021/01/30 02:26:18;;;;;;;;;;;;;;;;;;;;;
2021/01/30 02:29:36;;;;;;;114.60;61.85;;;7.60;99.90;;;;;;4857865;29;20044;-83
2021/01/30 02:32:53;;;;;;;111.95;59.60;;;7.60;99.90;;;;;;4860663;29;20034;-82
2021/01/30 02:39:36;;;;;;;113.72;60.10;;;7.60;99.90;;;;;;4914065;29;20157;-83
2021/01/30 02:46:18;;;;;;;;;;;;;;;;;;;;;
2021/01/30 02:50:49;;;;;;;;;;;;;;;;;;;;;
2021/01/30 03:01:16;;;;;;;105.20;58.70;;;7.60;99.90;;;;;;4837166;29;20037;-83
2021/01/30 03:11:37;;;;;;;;;;;;;;;;;;;;;
2021/01/30 03:14:13;;;;;;;104.63;57.97;;;7.50;99.90;;;;;;4922921;29;20144;-83
2021/01/30 03:24:41;;;;;;;;;;;;;;;;;;;;;
2021/01/30 03:35:17;;;;;;;;;;;;;;;;;;;;;
2021/01/30 04:04:07;;;;;;;;;;;;;;;;;;;;;
2021/01/30 04:42:33;;;;;;;52.47;31.20;;;6.90;99.90;;;;;;4740217;30;20506;-82
2021/01/30 04:56:13;;;;;;;59.38;37.05;;;6.80;99.90;;;;;;4740348;30;20028;-83
2021/01/30 05:03:10;;;;;;;70.38;37.85;;;6.80;99.90;;;;;;4714448;30;20081;-83
2021/01/30 05:06:36;;;;;;;;;;;;;;;;;;;;;
2021/01/30 05:09:53;;;;;;;67.80;39.78;;;6.70;99.90;;;;;;4731549;30;20033;-83
2021/01/30 05:16:37;;;;;;;118.15;52.13;;;6.80;99.90;;;;;;4828384;29;20037;-83
2021/01/30 05:30:33;;;;;;;;;;;;;;;;;;;;;
2021/01/30 05:37:30;;;;;;;;;;;;;;;;;;;;;
2021/01/30 05:54:38;;;;;;;;;;;;;;;;;;;;;
2021/01/30 06:05:55;;;;;;;;;;;;;;;;;;;;;
2021/01/30 06:22:25;;;;;;;;;;;;;;;;;;;;;
2021/01/30 06:33:15;;;;;;;65.45;34.63;;;6.40;99.90;;;;;;4874361;29;20505;-82
2021/01/30 06:36:25;;;;;;;60.60;33.10;;;6.40;99.90;;;;;;4871906;29;20077;-82
2021/01/30 06:46:29;;;;;;;;;;;;;;;;;;;;;
2021/01/30 07:17:40;;;;;;;66.15;37.30;;;6.70;99.90;;;;;;4877050;29;20062;-83
2021/01/30 07:32:04;;;;;;;73.15;39.03;;;6.80;99.90;;;;;;4777057;29;20144;-82
2021/01/30 07:36:12;;;;;;;;;;;;;;;;;;;;;
2021/01/30 07:38:49;;;;;;;;;;;;;;;;;;;;;
2021/01/30 07:41:48;;;;;;;;;;;;;;;;;;;;;
2021/01/30 07:45:14;;;;;;;74.35;36.15;;;7.20;99.90;;;;;;4778392;30;20323;-82
2021/01/30 07:52:13;;;;;;;69.28;35.05;;;7.30;99.90;;;;;;4864338;29;20063;-83
2021/01/30 07:55:42;;;;;;;62.88;34.50;;;7.40;99.90;;;;;;4923915;28;20069;-81
2021/01/30 08:02:52;;;;;;;;;;;;;;;;;;;;;
2021/01/30 08:06:01;;;;;;;;;;;;;;;;;;;;;
2021/01/30 08:24:26;;;;;;;64.05;39.28;;;8.70;99.90;;;;;;4865256;29;20121;-83
2021/01/30 08:34:24;;;;;;;;;;;;;;;;;;;;;
2021/01/30 08:37:46;;;;;;;;;;;;;;;;;;;;;
2021/01/30 08:46:58;;;;;;;47.30;29.60;;;11.10;99.90;;;;;;4907273;29;19921;-82
2021/01/30 08:54:14;;;;;;;43.42;25.50;;;11.30;99.90;;;;;;4894714;29;20433;-83
2021/01/30 08:57:48;;;;;;;;;;;;;;;;;;;;;
2021/01/30 09:07:39;;;;;;;87.55;34.42;;;11.60;99.90;;;;;;4855818;29;20089;-82
2021/01/30 09:14:27;;;;;;;52.33;31.58;;;11.70;99.90;;;;;;4809849;29;20045;-82
2021/01/30 09:17:52;;;;;;;;;;;;;;;;;;;;;
2021/01/30 09:21:25;;;;;;;;;;;;;;;;;;;;;
2021/01/30 09:24:41;;;;;;;;;;;;;;;;;;;;;
2021/01/30 09:31:13;;;;;;;48.87;32.17;;;15.50;99.90;;;;;;4855022;29;20070;-82
2021/01/30 09:34:34;;;;;;;38.00;26.08;;;15.60;99.90;;;;;;4855631;29;20298;-81
2021/01/30 09:38:43;;;;;;;43.85;28.25;;;14.90;99.90;;;;;;4855995;29;20548;-82
2021/01/30 09:41:24;;;;;;;39.92;24.58;;;14.70;99.90;;;;;;4863079;29;20109;-82
2021/01/30 09:59:05;;;;;;;41.42;28.17;;;18.50;99.90;;;;;;4789676;29;20056;-83
2021/01/30 10:16:02;;;;;;;;;;;;;;;;;;;;;
2021/01/30 10:40:54;;;;;;;46.67;28.02;;;18.70;99.90;;;;;;4706842;30;20068;-83
2021/01/30 10:44:26;;;;;;;47.72;28.17;;;17.70;99.90;;;;;;4694397;30;20088;-81
2021/01/30 11:21:55;;;;;;;38.88;23.77;;;20.60;99.90;;;;;;4756220;30;20040;-82
2021/01/30 11:32:52;;;;;;;38.58;24.70;;;18.60;99.90;;;;;;4690741;30;20048;-82
2021/01/30 11:36:00;;;;;;;43.85;29.00;;;18.20;99.90;;;;;;4714960;30;20085;-82
2021/01/30 12:27:38;;;;;;;;;;;;;;;;;;;;;
2021/01/30 12:38:00;;;;;;;44.35;27.48;;;12.70;99.90;;;;;;4819793;29;20721;-80
2021/01/30 12:41:39;;;;;;;40.50;26.15;;;12.30;99.90;;;;;;4834010;29;20045;-81
2021/01/30 12:47:52;;;;;;;45.90;27.55;;;12.10;99.90;;;;;;4855764;29;20068;-80
2021/01/30 12:51:27;;;;;;;;;;;;;;;;;;;;;
2021/01/30 12:54:50;;;;;;;;;;;;;;;;;;;;;
2021/01/30 13:19:23;;;;;;;44.17;28.90;;;11.40;99.90;;;;;;4919063;29;20524;-82
2021/01/30 13:23:07;;;;;;;;;;;;;;;;;;;;;
2021/01/30 13:37:13;;;;;;;43.30;27.58;;;11.00;99.90;;;;;;4792721;29;20085;-82
2021/01/30 13:44:15;;;;;;;51.28;28.65;;;10.80;99.90;;;;;;4843727;28;20058;-83
2021/01/30 13:47:30;;;;;;;44.38;28.75;;;10.70;99.90;;;;;;4873809;29;20079;-82
2021/01/30 13:57:19;;;;;;;50.45;30.15;;;10.70;99.90;;;;;;4759467;30;20051;-81
2021/01/30 14:11:14;;;;;;;51.55;30.40;;;10.40;99.90;;;;;;4736600;30;20062;-81
2021/01/30 14:21:37;;;;;;;55.92;33.30;;;10.30;99.90;;;;;;4751463;30;20039;-81
2021/01/30 14:31:52;;;;;;;62.45;40.28;;;10.30;99.90;;;;;;4839843;29;20114;-81
2021/01/30 15:09:53;;;;;;;64.07;39.53;;;10.30;99.90;;;;;;4877233;29;21541;-86
2021/01/30 15:26:45;;;;;;;66.85;36.00;;;10.20;99.90;;;;;;4706841;30;20059;-83
2021/01/30 15:33:11;;;;;;;57.40;35.25;;;10.10;99.90;;;;;;4763286;30;20541;-83
2021/01/30 15:39:42;;;;;;;63.53;32.53;;;10.10;99.90;;;;;;4698207;30;20041;-81
2021/01/30 15:53:06;;;;;;;65.25;37.40;;;10.10;99.90;;;;;;4718700;30;20052;-82
2021/01/30 15:55:33;;;;;;;68.88;40.67;;;10.10;99.90;;;;;;4719858;29;20249;-83
2021/01/30 15:57:59;;;;;;;61.58;38.65;;;10.10;99.90;;;;;;4797300;29;20120;-82
2021/01/30 16:00:52;;;;;;;72.60;46.92;;;10.00;99.90;;;;;;4933117;28;20039;-81
2021/01/30 16:03:18;;;;;;;63.22;41.38;;;10.00;99.90;;;;;;4934008;28;20113;-83
2021/01/30 16:06:15;;;;;;;76.13;48.20;;;10.00;99.90;;;;;;4967757;28;20090;-84
2021/01/30 16:08:54;;;;;;;60.35;38.83;;;10.00;99.90;;;;;;4953957;28;20102;-82
2021/01/30 16:11:20;;;;;;;58.15;38.60;;;10.00;99.90;;;;;;4953475;28;20023;-82
2021/01/30 16:13:46;;;;;;;59.03;36.55;;;10.00;99.90;;;;;;4951404;28;20027;-81
2021/01/30 16:16:12;;;;;;;61.35;39.38;;;9.90;99.90;;;;;;4945313;28;20031;-76
2021/01/30 16:18:37;;;;;;;60.67;39.88;;;9.90;99.90;;;;;;4950535;28;20138;-78
2021/01/30 16:21:04;;;;;;;64.40;38.08;;;9.80;99.90;;;;;;4953275;28;20404;-80
2021/01/30 16:23:30;;;;;;;60.47;39.20;;;9.80;99.90;;;;;;4953311;28;20098;-77
2021/01/30 16:25:56;;;;;;;70.82;40.45;;;9.80;99.90;;;;;;4953522;28;20146;-76
2021/01/30 16:28:22;;;;;;;70.55;43.17;;;9.70;99.90;;;;;;4952549;28;20023;-76
2021/01/30 16:30:47;;;;;;;64.43;39.22;;;9.70;99.90;;;;;;4953567;28;20719;-81
2021/01/30 16:33:14;;;;;;;60.70;40.15;;;9.70;99.90;;;;;;4972476;28;20517;-80
2021/01/30 16:35:40;;;;;;;65.05;40.90;;;9.70;99.90;;;;;;4992975;28;20069;-76
2021/01/30 16:38:08;;;;;;;60.63;39.35;;;9.70;99.90;;;;;;4992048;28;20050;-77
2021/01/30 16:40:35;;;;;;;70.45;44.72;;;9.80;99.90;;;;;;4990398;28;20362;-78
2021/01/30 16:43:03;;;;;;;138.95;79.95;;;9.70;99.90;;;;;;4975093;28;20390;-81
2021/01/30 16:45:28;;;;;;;184.40;104.68;;;9.70;99.90;;;;;;4991479;28;20467;-79
2021/01/30 16:47:54;;;;;;;142.52;84.30;;;9.70;99.90;;;;;;4988947;28;20037;-81
2021/01/30 16:50:21;;;;;;;101.68;63.17;;;9.70;99.90;;;;;;4992050;28;20022;-80
2021/01/30 16:52:48;;;;;;;107.40;66.43;;;9.70;99.90;;;;;;4991186;28;20023;-81
2021/01/30 16:55:14;;;;;;;114.07;72.95;;;9.70;99.90;;;;;;4973591;28;20037;-78
2021/01/30 16:57:39;;;;;;;99.57;59.92;;;9.70;99.90;;;;;;4990552;28;20026;-75
2021/01/30 17:00:27;;;;;;;82.28;52.97;;;9.60;99.90;;;;;;4991010;28;20030;-81
2021/01/30 17:02:55;;;;;;;82.32;50.75;;;9.50;99.90;;;;;;4969173;28;20125;-78
2021/01/30 17:05:21;;;;;;;77.22;50.17;;;9.40;99.90;;;;;;4991873;28;20052;-81
2021/01/30 17:07:47;;;;;;;88.03;51.92;;;9.40;99.90;;;;;;4992077;28;20037;-81
2021/01/30 17:10:12;;;;;;;87.20;55.42;;;9.30;99.90;;;;;;4991519;28;20035;-83
2021/01/30 17:12:38;;;;;;;83.88;49.92;;;9.30;99.90;;;;;;4992331;28;20022;-83
2021/01/30 17:15:06;;;;;;;76.85;48.67;;;9.30;99.90;;;;;;4994382;28;20160;-78
2021/01/30 17:17:32;;;;;;;78.60;48.78;;;9.30;99.90;;;;;;4991091;28;20542;-78
2021/01/30 17:19:58;;;;;;;72.10;46.90;;;9.40;99.90;;;;;;4991227;28;20030;-81
2021/01/30 17:22:24;;;;;;;77.88;48.38;;;9.40;99.90;;;;;;4992072;28;20395;-80
2021/01/30 17:24:49;;;;;;;75.68;46.83;;;9.30;99.90;;;;;;4994203;28;20387;-79
2021/01/30 17:27:15;;;;;;;92.22;54.30;;;9.30;99.90;;;;;;4994682;28;20022;-78
2021/01/30 17:30:00;;;;;;;90.40;54.03;;;9.30;99.90;;;;;;4991058;28;20486;-81
2021/01/30 17:32:26;;;;;;;86.63;53.20;;;9.30;99.90;;;;;;4991346;28;20522;-81
2021/01/30 17:34:52;;;;;;;96.68;56.72;;;9.30;99.90;;;;;;4990585;28;20039;-81
2021/01/30 17:37:21;;;;;;;85.63;50.63;;;9.30;99.90;;;;;;4991783;28;20033;-81
2021/01/30 17:39:47;;;;;;;86.03;51.50;;;9.30;99.90;;;;;;4991383;28;20407;-80
2021/01/30 17:42:13;;;;;;;86.55;50.13;;;9.40;99.90;;;;;;4990979;28;20088;-79
2021/01/30 17:44:45;;;;;;;71.03;40.95;;;9.40;99.90;;;;;;4989590;28;20517;-82
2021/01/30 17:47:11;;;;;;;83.25;49.22;;;9.40;99.90;;;;;;4989356;28;20053;-79
2021/01/30 17:49:40;;;;;;;75.05;47.10;;;9.40;99.90;;;;;;4990953;28;20130;-82
2021/01/30 17:52:06;;;;;;;77.47;47.67;;;9.40;99.90;;;;;;4989627;28;20108;-84
2021/01/30 17:54:31;;;;;;;84.50;49.13;;;9.50;99.90;;;;;;4990595;28;20102;-79
2021/01/30 17:56:57;;;;;;;89.72;54.60;;;9.50;99.90;;;;;;4985060;28;20474;-83
2021/01/30 17:59:23;;;;;;;92.32;52.25;;;9.60;99.90;;;;;;4987379;28;20065;-82
2021/01/30 18:01:49;;;;;;;88.22;51.38;;;9.60;99.90;;;;;;4988944;28;20514;-82
2021/01/30 18:04:18;;;;;;;78.47;50.17;;;9.50;99.90;;;;;;4989071;28;20031;-81
2021/01/30 18:06:44;;;;;;;91.22;51.50;;;9.30;99.90;;;;;;4990198;28;20022;-80
2021/01/30 18:09:13;;;;;;;89.13;53.22;;;9.30;99.90;;;;;;4990649;28;20513;-81
2021/01/30 18:11:40;;;;;;;97.38;53.80;;;9.20;99.90;;;;;;4988584;28;20101;-81
2021/01/30 18:14:24;;;;;;;84.65;53.03;;;9.10;99.90;;;;;;4993396;28;20483;-82
2021/01/30 18:16:52;;;;;;;86.18;54.28;;;9.10;99.90;;;;;;4990134;28;20445;-81
2021/01/30 18:19:39;;;;;;;87.57;53.92;;;9.10;99.90;;;;;;4990494;28;20034;-81
2021/01/30 18:23:06;;;;;;;82.30;50.88;;;9.10;99.90;;;;;;4975526;28;20123;-81
2021/01/30 18:36:31;;;;;;;90.38;53.35;;;9.10;99.90;;;;;;4892494;29;20229;-83
2021/01/30 18:40:03;;;;;;;93.95;55.97;;;9.10;99.90;;;;;;4890772;29;20025;-84
2021/01/30 18:43:28;;;;;;;;;;;;;;;;;;;;;
2021/01/30 18:49:41;;;;;;;99.10;57.25;;;9.10;99.90;;;;;;4890124;29;20447;-81
2021/01/30 18:56:56;;;;;;;92.63;52.85;;;9.10;99.90;;;;;;4836487;29;20197;-82
2021/01/30 19:00:17;;;;;;;90.45;57.38;;;9.10;99.90;;;;;;4829381;29;20490;-81
2021/01/30 19:02:58;;;;;;;91.53;55.75;;;9.10;99.90;;;;;;4817453;29;20072;-81
2021/01/30 19:06:01;;;;;;;94.72;55.83;;;9.10;99.90;;;;;;4817665;29;20098;-82
2021/01/30 19:09:23;;;;;;;83.22;53.70;;;9.10;99.90;;;;;;4871148;29;20517;-82
2021/01/30 19:15:17;;;;;;;88.90;53.67;;;9.20;99.90;;;;;;4856622;29;20076;-82
2021/01/30 19:17:49;;;;;;;95.40;60.25;;;9.30;99.90;;;;;;4867347;29;20203;-82
2021/01/30 19:20:20;;;;;;;105.38;64.30;;;9.30;99.90;;;;;;4960026;28;20122;-83
2021/01/30 19:22:46;;;;;;;112.20;68.53;;;9.40;99.90;;;;;;4974837;28;20117;-76
2021/01/30 19:25:12;;;;;;;119.10;74.75;;;9.40;99.90;;;;;;4974852;28;20484;-79
2021/01/30 19:27:37;;;;;;;124.55;75.38;;;9.50;99.90;;;;;;4973696;28;20038;-76
2021/01/30 19:30:07;;;;;;;129.13;75.15;;;9.40;99.90;;;;;;4973251;28;20022;-79
2021/01/30 19:32:33;;;;;;;127.38;76.78;;;9.40;99.90;;;;;;4973965;28;20030;-77
2021/01/30 19:34:59;;;;;;;138.75;83.43;;;9.40;99.90;;;;;;4991618;28;20037;-77
2021/01/30 19:37:25;;;;;;;149.80;88.75;;;9.50;99.90;;;;;;4974619;28;20034;-76
2021/01/30 19:39:51;;;;;;;151.23;89.57;;;9.50;99.90;;;;;;4992627;28;20088;-81
2021/01/30 19:53:28;;;;;;;127.97;74.73;;;9.50;99.90;;;;;;4994043;28;20033;-86
2021/01/30 19:55:54;;;;;;;110.20;68.47;;;9.50;99.90;;;;;;4907725;29;20040;-79
2021/01/30 19:58:22;;;;;;;111.25;62.60;;;9.50;99.90;;;;;;4910939;29;20044;-80
2021/01/30 20:00:51;;;;;;;119.30;69.93;;;9.50;99.90;;;;;;4947674;28;20030;-84
2021/01/30 20:03:17;;;;;;;117.03;70.82;;;9.50;99.90;;;;;;4993660;28;20125;-84
2021/01/30 20:05:43;;;;;;;108.38;67.93;;;9.50;99.90;;;;;;4993814;28;20018;-80
2021/01/30 20:08:09;;;;;;;111.82;68.97;;;9.60;99.90;;;;;;4993756;28;20038;-82
2021/01/30 20:10:39;;;;;;;117.05;70.43;;;9.60;99.90;;;;;;4990689;28;20498;-79
2021/01/30 20:13:05;;;;;;;105.05;64.60;;;9.50;99.90;;;;;;4993992;28;20471;-83
2021/01/30 20:15:32;;;;;;;103.53;62.88;;;9.40;99.90;;;;;;4991068;28;20045;-78
2021/01/30 20:17:58;;;;;;;92.43;58.80;;;9.40;99.90;;;;;;4991687;28;20030;-79
2021/01/30 20:20:25;;;;;;;98.95;59.33;;;9.30;99.90;;;;;;4991147;28;20028;-77
2021/01/30 20:22:51;;;;;;;105.45;60.30;;;9.30;99.90;;;;;;4990152;28;20412;-81
2021/01/30 20:25:19;;;;;;;93.65;53.67;;;9.30;99.90;;;;;;4991741;28;20035;-80
2021/01/30 20:27:45;;;;;;;96.00;58.05;;;9.30;99.90;;;;;;4992489;28;20018;-83
2021/01/30 20:30:15;;;;;;;93.20;58.97;;;9.40;99.90;;;;;;4991561;28;20026;-85
2021/01/30 20:32:41;;;;;;;82.40;49.33;;;9.40;99.90;;;;;;4991801;28;20061;-81
2021/01/30 20:35:07;;;;;;;86.97;48.45;;;9.50;99.90;;;;;;4992759;28;20113;-85
2021/01/30 20:37:36;;;;;;;74.07;42.88;;;9.60;99.90;;;;;;4993126;28;20534;-82
2021/01/30 20:40:03;;;;;;;75.22;39.92;;;9.70;99.90;;;;;;4992462;28;20514;-84
2021/01/30 20:42:29;;;;;;;77.28;37.05;;;9.80;99.90;;;;;;4992066;28;20197;-84
2021/01/30 20:44:55;;;;;;;75.78;38.92;;;9.90;99.90;;;;;;4991230;28;20033;-81
2021/01/30 20:47:21;;;;;;;78.95;38.38;;;10.00;99.90;;;;;;4991704;28;20030;-81
2021/01/30 20:49:46;;;;;;;87.22;45.25;;;10.10;99.90;;;;;;4992444;28;20471;-81
2021/01/30 20:52:12;;;;;;;62.88;33.97;;;10.20;99.90;;;;;;4991223;28;20034;-80
2021/01/30 20:54:38;;;;;;;63.40;33.50;;;10.20;99.90;;;;;;4991141;28;20027;-81
2021/01/30 20:57:04;;;;;;;66.68;34.25;;;10.30;99.90;;;;;;4990692;28;20082;-77
2021/01/30 20:59:30;;;;;;;71.15;36.15;;;10.40;99.90;;;;;;4991089;28;20095;-83
2021/01/30 21:01:55;;;;;;;68.43;40.25;;;10.50;99.90;;;;;;4989456;28;20522;-77
2021/01/30 21:04:21;;;;;;;75.20;37.28;;;10.60;99.90;;;;;;4991758;28;20487;-79
2021/01/30 21:06:47;;;;;;;77.40;43.20;;;10.60;99.90;;;;;;4990095;28;20030;-81
2021/01/30 21:09:13;;;;;;;61.75;37.33;;;10.60;99.90;;;;;;4990059;28;20026;-78
2021/01/30 21:11:39;;;;;;;79.00;41.28;;;10.70;99.90;;;;;;4990681;28;20052;-80
2021/01/30 21:14:07;;;;;;;65.20;38.75;;;10.70;99.90;;;;;;4991995;28;20467;-79
2021/01/30 21:16:34;;;;;;;74.57;40.53;;;10.70;99.90;;;;;;4992726;28;20026;-78
2021/01/30 21:19:00;;;;;;;77.72;40.38;;;10.80;99.90;;;;;;4991347;28;20065;-79
2021/01/30 21:21:26;;;;;;;81.70;43.33;;;10.80;99.90;;;;;;4991460;28;20030;-80
2021/01/30 21:23:52;;;;;;;65.57;35.78;;;10.80;99.90;;;;;;4991086;28;20033;-79
2021/01/30 21:26:27;;;;;;;83.00;40.72;;;10.80;99.90;;;;;;4991884;28;20386;-86
2021/01/30 21:28:53;;;;;;;83.95;44.55;;;10.90;99.90;;;;;;4988945;28;20092;-82
2021/01/30 21:31:22;;;;;;;75.65;39.58;;;10.90;99.90;;;;;;4991090;28;20117;-80
2021/01/30 21:33:49;;;;;;;73.85;41.15;;;10.90;99.90;;;;;;4989719;28;20046;-86
2021/01/30 21:36:16;;;;;;;70.88;37.53;;;10.90;99.90;;;;;;4991407;28;20113;-85
2021/01/30 21:38:46;;;;;;;76.80;38.58;;;10.90;99.90;;;;;;4991940;28;20073;-79
2021/01/30 21:41:16;;;;;;;77.10;39.40;;;10.90;99.90;;;;;;4991704;28;20058;-84
2021/01/30 21:43:42;;;;;;;82.07;38.97;;;10.90;99.90;;;;;;4992480;28;20030;-80
2021/01/30 21:46:11;;;;;;;74.63;39.47;;;10.90;99.90;;;;;;4991387;28;20073;-81
2021/01/30 21:48:43;;;;;;;71.88;37.20;;;10.90;99.90;;;;;;4990979;28;20519;-80
2021/01/30 21:51:09;;;;;;;68.75;37.00;;;11.00;99.90;;;;;;4992034;28;20030;-80
2021/01/30 21:53:35;;;;;;;75.43;36.55;;;11.00;99.90;;;;;;4991714;28;20552;-83
2021/01/30 21:56:01;;;;;;;73.93;38.72;;;11.00;99.90;;;;;;4991769;28;20561;-80
2021/01/30 21:58:27;;;;;;;74.55;39.17;;;11.00;99.90;;;;;;4991635;28;20027;-80
2021/01/30 22:00:53;;;;;;;64.57;37.58;;;11.10;99.90;;;;;;4992023;28;20030;-84
2021/01/30 22:03:19;;;;;;;65.22;38.15;;;11.00;99.90;;;;;;4991278;28;20015;-79
2021/01/30 22:05:45;;;;;;;70.60;38.58;;;11.10;99.90;;;;;;4991704;28;20045;-80
2021/01/30 22:08:11;;;;;;;73.72;38.50;;;11.10;99.90;;;;;;4991066;28;20022;-84
2021/01/30 22:10:37;;;;;;;61.38;34.50;;;11.10;99.90;;;;;;4991314;28;20026;-82
2021/01/30 22:13:04;;;;;;;61.13;34.10;;;11.00;99.90;;;;;;4991192;28;20173;-83
2021/01/30 22:15:30;;;;;;;69.75;35.40;;;11.10;99.90;;;;;;4990709;28;20446;-84
2021/01/30 22:17:56;;;;;;;68.63;34.40;;;11.10;99.90;;;;;;4991103;28;20056;-81
2021/01/30 22:20:23;;;;;;;55.30;34.35;;;11.10;99.90;;;;;;4990835;28;20105;-83
2021/01/30 22:22:49;;;;;;;69.03;34.78;;;11.10;99.90;;;;;;4988273;28;20045;-81
2021/01/30 22:25:15;;;;;;;59.35;35.03;;;11.10;99.90;;;;;;4990597;28;20038;-83
2021/01/30 22:27:42;;;;;;;73.43;35.78;;;11.00;99.90;;;;;;4990544;28;20442;-84
2021/01/30 22:30:08;;;;;;;72.15;32.42;;;11.00;99.90;;;;;;4990763;28;20030;-82
2021/01/30 22:32:39;;;;;;;58.10;33.35;;;11.00;99.90;;;;;;4989408;28;20110;-81
2021/01/30 22:35:08;;;;;;;58.08;33.00;;;11.00;99.90;;;;;;4990598;28;20065;-85
2021/01/30 22:38:28;;;;;;;;;;;;;;;;;;;;;
2021/01/30 22:40:54;;;;;;;54.20;33.17;;;11.10;99.90;;;;;;4984409;28;20035;-85
2021/01/30 22:43:20;;;;;;;56.00;30.15;;;11.10;99.90;;;;;;4990465;28;20114;-83
2021/01/30 22:45:46;;;;;;;54.83;32.22;;;11.10;99.90;;;;;;4993284;28;20019;-84
2021/01/30 22:48:15;;;;;;;59.35;33.58;;;11.10;99.90;;;;;;4994211;28;20489;-81
2021/01/30 22:50:41;;;;;;;61.65;33.00;;;11.00;99.90;;;;;;4994289;28;20030;-83
2021/01/30 22:53:10;;;;;;;52.05;30.27;;;11.00;99.90;;;;;;4994738;28;20022;-81
2021/01/30 22:55:44;;;;;;;50.65;29.08;;;11.00;99.90;;;;;;4994397;28;20022;-83
2021/01/30 22:58:19;;;;;;;47.75;29.02;;;11.00;99.90;;;;;;4994006;28;20030;-84
2021/01/30 23:00:49;;;;;;;51.22;30.27;;;11.00;99.90;;;;;;4995656;28;20430;-84
2021/01/30 23:03:19;;;;;;;55.25;30.48;;;10.90;99.90;;;;;;4994722;28;20446;-83
2021/01/30 23:05:48;;;;;;;55.58;28.73;;;11.00;99.90;;;;;;4995697;28;20026;-84
2021/01/30 23:08:19;;;;;;;48.92;31.05;;;11.00;99.90;;;;;;4995485;28;20088;-82
2021/01/30 23:11:02;;;;;;;53.22;30.40;;;11.00;99.90;;;;;;4995279;28;20026;-84
2021/01/30 23:13:29;;;;;;;49.58;26.45;;;10.90;99.90;;;;;;4995361;28;20176;-83
2021/01/30 23:16:25;;;;;;;48.72;28.17;;;10.90;99.90;;;;;;4995326;28;20023;-82
2021/01/30 23:18:58;;;;;;;48.33;27.70;;;10.90;99.90;;;;;;4972655;28;20034;-82
2021/01/30 23:21:32;;;;;;;46.20;26.60;;;10.90;99.90;;;;;;4994582;28;20077;-85
2021/01/30 23:23:59;;;;;;;53.97;28.40;;;10.90;99.90;;;;;;4994895;28;20037;-85
2021/01/30 23:26:34;;;;;;;47.45;26.73;;;10.90;99.90;;;;;;4995318;28;20022;-85
2021/01/30 23:29:05;;;;;;;48.53;25.08;;;10.90;99.90;;;;;;4995285;28;20379;-85
2021/01/30 23:31:35;;;;;;;;;;;10.90;99.90;;;;;;4992757;28;20034;-84
2021/01/30 23:34:04;;;;;;;46.33;22.67;;;10.80;99.90;;;;;;4994813;28;19918;-83
2021/01/30 23:36:31;;;;;;;46.45;22.92;;;10.80;99.90;;;;;;4994719;28;20014;-85
2021/01/30 23:39:06;;;;;;;41.88;21.45;;;10.80;99.90;;;;;;4995510;28;20034;-83
2021/01/30 23:41:32;;;;;;;44.35;20.50;;;10.80;99.90;;;;;;4992961;28;20041;-83
2021/01/30 23:44:01;;;;;;;46.20;22.08;;;10.70;99.90;;;;;;4994449;28;20415;-84
2021/01/30 23:46:30;;;;;;;44.00;23.27;;;10.70;99.90;;;;;;4994885;28;20034;-84
2021/01/30 23:48:56;;;;;;;48.47;23.92;;;10.70;99.90;;;;;;4994952;28;20026;-84
2021/01/30 23:51:25;;;;;;;40.47;24.02;;;10.70;99.90;;;;;;4994417;28;20034;-81
2021/01/30 23:53:51;;;;;;;35.28;22.98;;;10.70;99.90;;;;;;4994761;28;20030;-83
2021/01/30 23:56:16;;;;;;;40.53;24.92;;;10.70;99.90;;;;;;4994280;28;20498;-85
2021/01/30 23:58:42;;;;;;;45.58;23.30;;;10.60;99.90;;;;;;4994446;28;20034;-85
